Time;durP1;ratioP1;P1;durP2;ratioP2;P2;SDS_P1;SDS_P2;PMS_P1;PMS_P2;Temp;Humidity;BMP_temperature;BMP_pressure;BME280_temperature;BME280_humidity;BME280_pressure;Samples;Min_cycle;Max_cycle;Signal;HPM_P1;HPM_P2
2021/01/19 00:02:19;;;;;;;4.05;3.38;;;;;;;;;;5078130;28;20304;-82
2021/01/19 00:04:47;;;;;;;2.45;2.28;;;;;;;;;;5078075;28;20201;-82
2021/01/19 00:07:14;;;;;;;3.30;3.03;;;;;;;;;;5077350;28;20566;-82
2021/01/19 00:09:41;;;;;;;3.35;3.05;;;;;;;;;;5078018;28;20200;-83
2021/01/19 00:12:08;;;;;;;6.43;3.78;;;;;;;;;;5077862;28;20271;-82
2021/01/19 00:14:35;;;;;;;3.30;2.97;;;;;;;;;;5077796;28;20197;-82
2021/01/19 00:17:02;;;;;;;3.40;3.10;;;;;;;;;;5077601;28;20186;-82
2021/01/19 00:19:29;;;;;;;2.88;2.67;;;;;;;;;;5077746;28;20193;-83
2021/01/19 00:21:57;;;;;;;4.05;3.45;;;;;;;;;;5078010;28;20507;-83
2021/01/19 00:24:24;;;;;;;4.88;3.67;;;;;;;;;;5077934;28;20197;-82
2021/01/19 00:26:51;;;;;;;3.38;3.15;;;;;;;;;;5077175;28;20193;-83
2021/01/19 00:29:18;;;;;;;4.25;3.55;;;;;;;;;;5077701;28;20282;-83
2021/01/19 00:31:45;;;;;;;3.83;3.42;;;;;;;;;;5077419;28;20246;-83
2021/01/19 00:34:12;;;;;;;3.33;3.03;;;;;;;;;;5077854;28;20457;-82
2021/01/19 00:36:42;;;;;;;5.15;4.05;;;;;;;;;;5077335;28;20192;-82
2021/01/19 00:39:11;;;;;;;5.00;4.50;;;;;;;;;;5078006;28;20270;-83
2021/01/19 00:41:37;;;;;;;5.75;4.78;;;;;;;;;;5077242;28;20311;-82
2021/01/19 00:44:05;;;;;;;4.60;4.00;;;;;;;;;;5076557;28;20223;-83
2021/01/19 00:46:32;;;;;;;5.68;4.88;;;;;;;;;;5076203;28;20554;-84
2021/01/19 00:48:59;;;;;;;5.10;4.60;;;;;;;;;;5070442;28;20206;-83
2021/01/19 00:51:34;;;;;;;4.85;4.38;;;;;;;;;;5073723;28;20467;-84
2021/01/19 00:54:01;;;;;;;4.13;3.72;;;;;;;;;;5075048;28;20192;-84
2021/01/19 00:56:39;;;;;;;4.32;3.92;;;;;;;;;;5069539;28;20201;-83
2021/01/19 00:59:06;;;;;;;5.72;4.65;;;;;;;;;;5073154;28;20189;-84
2021/01/19 01:01:35;;;;;;;4.60;3.88;;;;;;;;;;5076690;28;20217;-84
2021/01/19 01:04:02;;;;;;;3.63;3.33;;;;;;;;;;5077712;28;20258;-83
2021/01/19 01:06:29;;;;;;;4.57;3.95;;;;;;;;;;5077154;28;20209;-84
2021/01/19 01:08:56;;;;;;;4.78;3.85;;;;;;;;;;5077473;28;20525;-84
2021/01/19 01:11:23;;;;;;;3.45;3.15;;;;;;;;;;5077241;28;20487;-84
2021/01/19 01:13:51;;;;;;;4.00;3.70;;;;;;;;;;5077701;28;20278;-84
2021/01/19 01:16:17;;;;;;;3.70;3.33;;;;;;;;;;5076665;28;20530;-84
2021/01/19 01:18:44;;;;;;;4.15;3.72;;;;;;;;;;5077174;28;20204;-84
2021/01/19 01:21:12;;;;;;;5.10;3.45;;;;;;;;;;5077108;28;20213;-83
2021/01/19 01:23:39;;;;;;;3.65;2.85;;;;;;;;;;5077113;28;20201;-84
2021/01/19 01:26:06;;;;;;;4.13;3.72;;;;;;;;;;5076986;28;20181;-83
2021/01/19 01:28:33;;;;;;;4.68;3.53;;;;;;;;;;5077402;28;20198;-84
2021/01/19 01:31:00;;;;;;;3.70;3.40;;;;;;;;;;5076951;28;20254;-84
2021/01/19 01:33:27;;;;;;;3.55;3.25;;;;;;;;;;5076911;28;20542;-84
2021/01/19 01:35:54;;;;;;;3.63;3.35;;;;;;;;;;5076536;28;20522;-84
2021/01/19 01:38:21;;;;;;;2.80;2.60;;;;;;;;;;5077414;28;20190;-83
2021/01/19 01:40:48;;;;;;;3.85;3.47;;;;;;;;;;5077226;28;20205;-84
2021/01/19 01:43:15;;;;;;;3.55;3.15;;;;;;;;;;5076817;28;20237;-84
2021/01/19 01:45:43;;;;;;;3.35;3.15;;;;;;;;;;5080170;28;20554;-84
2021/01/19 01:48:11;;;;;;;3.78;3.35;;;;;;;;;;5080903;28;20200;-84
2021/01/19 01:50:39;;;;;;;3.90;3.60;;;;;;;;;;5080476;28;20250;-84
2021/01/19 01:53:06;;;;;;;2.83;2.63;;;;;;;;;;5080573;28;20177;-84
2021/01/19 01:55:35;;;;;;;3.47;3.17;;;;;;;;;;5080532;28;20256;-83
2021/01/19 01:58:02;;;;;;;3.17;2.88;;;;;;;;;;5080680;28;20182;-84
2021/01/19 02:00:29;;;;;;;5.15;3.55;;;;;;;;;;5080292;28;20543;-84
2021/01/19 02:02:58;;;;;;;4.45;3.25;;;;;;;;;;5080637;28;20181;-83
2021/01/19 02:05:27;;;;;;;3.38;3.15;;;;;;;;;;5080166;28;20196;-83
2021/01/19 02:08:10;;;;;;;3.55;3.30;;;;;;;;;;5080121;28;20185;-84
2021/01/19 02:10:49;;;;;;;5.22;2.53;;;;;;;;;;5080209;28;20545;-83
2021/01/19 02:13:26;;;;;;;3.58;3.28;;;;;;;;;;5080149;28;20215;-85
2021/01/19 02:16:01;;;;;;;3.45;3.15;;;;;;;;;;5079923;28;20185;-84
2021/01/19 02:18:40;;;;;;;2.83;2.63;;;;;;;;;;5080421;28;20188;-83
2021/01/19 02:21:55;;;;;;;3.33;3.03;;;;;;;;;;5080301;28;20208;-83
2021/01/19 02:24:34;;;;;;;3.10;2.90;;;;;;;;;;5018656;28;20207;-84
2021/01/19 02:27:18;;;;;;;2.42;2.30;;;;;;;;;;5001676;28;20230;-84
2021/01/19 02:30:09;;;;;;;3.40;3.10;;;;;;;;;;5018695;28;20576;-84
2021/01/19 02:32:58;;;;;;;3.28;3.03;;;;;;;;;;4960182;29;20527;-84
2021/01/19 02:35:30;;;;;;;2.47;2.28;;;;;;;;;;4957194;28;20353;-84
2021/01/19 02:38:17;;;;;;;3.30;3.10;;;;;;;;;;4959829;29;20579;-83
2021/01/19 02:40:44;;;;;;;4.28;3.17;;;;;;;;;;4960014;29;20280;-84
2021/01/19 02:43:14;;;;;;;4.57;3.25;;;;;;;;;;4959589;29;20287;-84
2021/01/19 02:45:45;;;;;;;3.65;3.35;;;;;;;;;;4959445;29;20200;-84
2021/01/19 02:48:13;;;;;;;3.50;3.20;;;;;;;;;;4959887;29;20205;-84
2021/01/19 02:50:40;;;;;;;2.72;2.53;;;;;;;;;;4959936;29;20215;-83
2021/01/19 02:53:07;;;;;;;3.28;3.08;;;;;;;;;;4959895;29;20267;-84
2021/01/19 02:55:34;;;;;;;2.67;2.47;;;;;;;;;;4959662;28;20197;-84
2021/01/19 02:58:25;;;;;;;2.83;2.63;;;;;;;;;;4959607;29;20197;-85
2021/01/19 03:01:03;;;;;;;3.13;2.92;;;;;;;;;;4911942;29;20204;-85
2021/01/19 03:03:34;;;;;;;3.83;2.97;;;;;;;;;;4959750;29;20577;-85
2021/01/19 03:06:07;;;;;;;2.72;2.53;;;;;;;;;;4959201;29;20208;-85
2021/01/19 03:08:35;;;;;;;3.10;2.88;;;;;;;;;;4960518;28;20181;-85
2021/01/19 03:11:05;;;;;;;2.65;2.45;;;;;;;;;;5038081;28;20210;-84
2021/01/19 03:13:32;;;;;;;3.58;2.60;;;;;;;;;;5037620;28;20233;-85
2021/01/19 03:16:07;;;;;;;2.97;2.78;;;;;;;;;;5037176;28;20198;-85
2021/01/19 03:18:35;;;;;;;2.90;2.60;;;;;;;;;;5037657;28;20500;-85
2021/01/19 03:21:03;;;;;;;2.60;2.40;;;;;;;;;;5037484;28;20632;-84
2021/01/19 03:23:30;;;;;;;4.50;3.58;;;;;;;;;;5037232;28;20201;-85
2021/01/19 03:25:57;;;;;;;2.97;2.78;;;;;;;;;;5036982;28;20205;-84
2021/01/19 03:28:24;;;;;;;3.20;2.90;;;;;;;;;;5035826;28;20236;-85
2021/01/19 03:30:51;;;;;;;3.13;2.83;;;;;;;;;;5038112;28;20187;-85
2021/01/19 03:33:18;;;;;;;3.40;3.20;;;;;;;;;;5078868;28;20181;-85
2021/01/19 03:35:46;;;;;;;4.13;3.10;;;;;;;;;;5078357;28;20187;-84
2021/01/19 03:38:13;;;;;;;4.22;2.55;;;;;;;;;;5078720;28;20189;-85
2021/01/19 03:40:41;;;;;;;3.13;2.83;;;;;;;;;;5078120;28;20593;-85
2021/01/19 03:43:08;;;;;;;3.95;3.35;;;;;;;;;;5078140;28;20507;-84
2021/01/19 03:45:35;;;;;;;3.33;2.92;;;;;;;;;;5077950;28;20186;-83
2021/01/19 03:48:02;;;;;;;4.07;3.10;;;;;;;;;;5078537;28;20203;-84
2021/01/19 03:50:30;;;;;;;3.28;3.08;;;;;;;;;;5078157;28;20208;-84
2021/01/19 03:52:58;;;;;;;3.03;2.72;;;;;;;;;;5078493;28;20185;-84
2021/01/19 03:55:24;;;;;;;2.83;2.63;;;;;;;;;;5078498;28;20185;-84
2021/01/19 03:57:51;;;;;;;3.72;3.42;;;;;;;;;;5077269;28;20255;-84
2021/01/19 04:00:19;;;;;;;4.45;2.85;;;;;;;;;;5078443;28;20181;-84
2021/01/19 04:02:46;;;;;;;3.67;3.28;;;;;;;;;;5078168;28;20298;-83
2021/01/19 04:05:13;;;;;;;3.08;2.88;;;;;;;;;;5078327;28;20189;-84
2021/01/19 04:07:42;;;;;;;6.45;3.40;;;;;;;;;;5077024;28;20612;-84
2021/01/19 04:10:11;;;;;;;7.45;2.88;;;;;;;;;;5078133;28;20189;-83
2021/01/19 04:12:39;;;;;;;3.88;3.58;;;;;;;;;;5077482;28;20220;-84
2021/01/19 04:15:07;;;;;;;3.53;2.63;;;;;;;;;;5078128;28;20197;-83
2021/01/19 04:17:35;;;;;;;4.47;2.47;;;;;;;;;;5076922;28;20242;-84
2021/01/19 04:20:02;;;;;;;5.60;3.00;;;;;;;;;;5077857;28;20205;-84
2021/01/19 04:22:29;;;;;;;8.43;2.78;;;;;;;;;;5077682;28;20202;-84
2021/01/19 04:24:56;;;;;;;3.45;3.05;;;;;;;;;;5077724;28;20223;-84
2021/01/19 04:27:24;;;;;;;4.70;3.45;;;;;;;;;;5077621;28;20186;-84
2021/01/19 04:29:51;;;;;;;4.50;2.63;;;;;;;;;;5077559;28;20573;-84
2021/01/19 04:32:18;;;;;;;6.30;2.55;;;;;;;;;;5077731;28;20191;-84
2021/01/19 04:34:44;;;;;;;5.82;2.50;;;;;;;;;;5077510;28;20262;-83
2021/01/19 04:37:11;;;;;;;3.50;2.95;;;;;;;;;;5077248;28;20181;-84
2021/01/19 04:39:38;;;;;;;6.00;2.65;;;;;;;;;;5077827;28;20643;-84
2021/01/19 04:42:05;;;;;;;4.35;2.90;;;;;;;;;;5076877;28;20229;-84
2021/01/19 04:44:33;;;;;;;6.15;3.05;;;;;;;;;;5077748;28;20570;-84
2021/01/19 04:47:02;;;;;;;5.43;2.28;;;;;;;;;;5076936;28;20246;-84
2021/01/19 04:49:29;;;;;;;3.50;2.67;;;;;;;;;;5077667;28;20173;-85
2021/01/19 04:51:58;;;;;;;4.15;2.72;;;;;;;;;;5077466;28;20181;-85
2021/01/19 04:54:27;;;;;;;2.97;2.67;;;;;;;;;;5077841;28;20185;-84
2021/01/19 04:56:55;;;;;;;4.68;2.88;;;;;;;;;;5077293;28;20193;-84
2021/01/19 04:59:24;;;;;;;5.65;2.88;;;;;;;;;;5077484;28;20554;-84
2021/01/19 05:02:35;;;;;;;4.43;3.42;;;;;;;;;;5077725;28;20492;-83
2021/01/19 05:06:08;;;;;;;4.60;3.10;;;;;;;;;;5077372;28;20193;-84
2021/01/19 05:08:57;;;;;;;2.55;2.33;;;;;;;;;;5077766;28;20460;-84
2021/01/19 05:11:27;;;;;;;4.55;2.30;;;;;;;;;;5077204;28;20228;-84
2021/01/19 05:13:59;;;;;;;6.95;2.70;;;;;;;;;;5077563;28;20213;-84
2021/01/19 05:16:30;;;;;;;4.72;2.65;;;;;;;;;;5076857;28;20186;-84
2021/01/19 05:18:58;;;;;;;3.42;2.45;;;;;;;;;;5078650;28;20188;-84
2021/01/19 05:21:25;;;;;;;6.00;2.47;;;;;;;;;;5081273;28;20196;-85
2021/01/19 05:23:52;;;;;;;7.10;2.67;;;;;;;;;;5081281;28;20201;-84
2021/01/19 05:26:19;;;;;;;5.75;2.75;;;;;;;;;;5080613;28;20250;-84
2021/01/19 05:28:49;;;;;;;7.72;2.55;;;;;;;;;;5081178;28;20193;-84
2021/01/19 05:31:26;;;;;;;4.55;2.00;;;;;;;;;;5081221;28;20275;-84
2021/01/19 05:34:07;;;;;;;5.43;2.50;;;;;;;;;;5081193;28;20185;-84
2021/01/19 05:36:39;;;;;;;3.60;2.10;;;;;;;;;;5080646;28;20261;-84
2021/01/19 05:39:08;;;;;;;2.92;1.92;;;;;;;;;;5081077;28;20288;-84
2021/01/19 05:41:38;;;;;;;3.95;2.45;;;;;;;;;;5080404;28;20279;-84
2021/01/19 05:44:25;;;;;;;2.53;2.10;;;;;;;;;;5080925;28;20202;-84
2021/01/19 05:47:04;;;;;;;4.25;3.20;;;;;;;;;;5080381;28;20181;-84
2021/01/19 05:49:36;;;;;;;5.43;2.00;;;;;;;;;;5080673;28;20181;-83
2021/01/19 05:52:05;;;;;;;9.20;4.03;;;;;;;;;;5081073;28;20284;-87
2021/01/19 05:54:34;;;;;;;3.40;1.90;;;;;;;;;;5080758;28;20177;-83
2021/01/19 05:57:09;;;;;;;4.15;2.72;;;;;;;;;;5080335;28;20190;-84
2021/01/19 05:59:39;;;;;;;4.40;2.75;;;;;;;;;;5080747;28;20188;-83
2021/01/19 06:02:09;;;;;;;2.30;1.95;;;;;;;;;;5080630;28;20200;-83
2021/01/19 06:04:43;;;;;;;2.67;1.88;;;;;;;;;;5080632;28;20177;-83
2021/01/19 06:07:12;;;;;;;5.80;2.10;;;;;;;;;;5080129;28;20188;-82
2021/01/19 06:09:40;;;;;;;3.47;2.33;;;;;;;;;;5080242;28;20554;-83
2021/01/19 06:12:08;;;;;;;3.92;2.45;;;;;;;;;;5080293;28;20217;-83
2021/01/19 06:14:36;;;;;;;2.45;1.98;;;;;;;;;;5080195;28;20518;-83
2021/01/19 06:17:09;;;;;;;4.88;2.30;;;;;;;;;;5079996;28;20193;-83
2021/01/19 06:19:37;;;;;;;3.70;2.20;;;;;;;;;;5080314;28;20246;-83
2021/01/19 06:22:10;;;;;;;4.53;2.08;;;;;;;;;;5079954;28;20242;-83
2021/01/19 06:24:40;;;;;;;3.35;2.45;;;;;;;;;;5078925;28;20185;-82
2021/01/19 06:27:08;;;;;;;6.85;3.10;;;;;;;;;;5079667;28;20177;-83
2021/01/19 06:29:37;;;;;;;4.97;2.33;;;;;;;;;;5079939;28;20181;-83
2021/01/19 06:32:07;;;;;;;4.75;2.50;;;;;;;;;;5080137;28;20193;-83
2021/01/19 06:34:38;;;;;;;4.10;2.40;;;;;;;;;;5079927;28;20554;-83
2021/01/19 06:37:08;;;;;;;2.42;2.22;;;;;;;;;;5079604;28;20265;-83
2021/01/19 06:39:40;;;;;;;2.90;2.10;;;;;;;;;;5080100;28;20191;-83
2021/01/19 06:42:16;;;;;;;3.45;2.30;;;;;;;;;;5077522;28;20232;-83
2021/01/19 06:44:48;;;;;;;5.07;2.40;;;;;;;;;;5079556;28;20234;-84
2021/01/19 06:47:17;;;;;;;5.65;2.80;;;;;;;;;;5079520;28;20262;-83
2021/01/19 06:49:44;;;;;;;6.65;3.00;;;;;;;;;;5079536;28;20200;-83
2021/01/19 06:52:13;;;;;;;5.18;2.97;;;;;;;;;;5079511;28;20267;-83
2021/01/19 06:55:11;;;;;;;9.82;3.00;;;;;;;;;;5079705;28;20495;-83
2021/01/19 06:58:06;;;;;;;5.53;2.60;;;;;;;;;;5079343;28;20201;-84
2021/01/19 07:00:42;;;;;;;4.45;2.80;;;;;;;;;;5079315;28;20177;-84
2021/01/19 07:03:23;;;;;;;5.05;2.70;;;;;;;;;;5079320;28;20200;-83
2021/01/19 07:05:56;;;;;;;2.83;2.50;;;;;;;;;;5079076;28;20189;-83
2021/01/19 07:09:04;;;;;;;3.95;2.92;;;;;;;;;;5074656;28;20550;-83
2021/01/19 07:11:59;;;;;;;7.97;3.22;;;;;;;;;;5078259;28;20253;-83
2021/01/19 07:14:40;;;;;;;9.65;4.75;;;;;;;;;;5079494;28;20178;-83
2021/01/19 07:17:09;;;;;;;3.47;2.72;;;;;;;;;;5078629;28;20547;-84
2021/01/19 07:19:48;;;;;;;6.13;3.88;;;;;;;;;;5079043;28;20193;-85
2021/01/19 07:22:51;;;;;;;6.00;3.55;;;;;;;;;;5079032;28;20588;-84
2021/01/19 07:25:19;;;;;;;6.57;3.10;;;;;;;;;;5079080;28;20181;-84
2021/01/19 07:27:46;;;;;;;5.30;3.55;;;;;;;;;;5078253;28;20464;-84
2021/01/19 07:30:15;;;;;;;6.00;3.22;;;;;;;;;;5079069;28;20267;-84
2021/01/19 07:32:42;;;;;;;6.68;4.28;;;;;;;;;;5078658;28;20503;-84
2021/01/19 07:35:11;;;;;;;4.47;3.38;;;;;;;;;;5079017;28;20181;-86
2021/01/19 07:37:39;;;;;;;4.97;3.15;;;;;;;;;;5078403;28;20546;-86
2021/01/19 07:40:18;;;;;;;5.13;3.58;;;;;;;;;;5079118;28;20181;-84
2021/01/19 07:42:45;;;;;;;4.70;3.25;;;;;;;;;;5077621;28;20270;-84
2021/01/19 07:45:13;;;;;;;4.35;3.95;;;;;;;;;;5060809;28;20223;-85
2021/01/19 07:47:42;;;;;;;9.10;3.92;;;;;;;;;;5059965;28;20216;-86
2021/01/19 07:50:15;;;;;;;4.72;3.25;;;;;;;;;;5078767;28;20197;-84
2021/01/19 07:52:44;;;;;;;4.68;3.15;;;;;;;;;;5078859;28;20221;-84
2021/01/19 07:55:19;;;;;;;4.13;3.70;;;;;;;;;;5078553;28;20242;-84
2021/01/19 07:57:48;;;;;;;4.40;3.50;;;;;;;;;;5078275;28;20216;-84
2021/01/19 08:00:22;;;;;;;3.85;3.15;;;;;;;;;;5078183;28;20546;-84
2021/01/19 08:02:49;;;;;;;4.70;3.45;;;;;;;;;;5078401;28;20207;-84
2021/01/19 08:05:26;;;;;;;3.85;3.33;;;;;;;;;;5078324;28;20196;-84
2021/01/19 08:07:56;;;;;;;6.07;3.50;;;;;;;;;;5077749;28;20185;-84
2021/01/19 08:10:24;;;;;;;4.50;3.40;;;;;;;;;;5078575;28;20254;-84
2021/01/19 08:12:52;;;;;;;6.63;3.28;;;;;;;;;;5078198;28;20220;-84
2021/01/19 08:15:21;;;;;;;4.80;3.28;;;;;;;;;;5078173;28;20192;-84
2021/01/19 08:17:53;;;;;;;3.53;3.22;;;;;;;;;;5077991;28;20185;-84
2021/01/19 08:20:29;;;;;;;6.00;3.20;;;;;;;;;;5078459;28;20195;-84
2021/01/19 08:23:09;;;;;;;3.58;2.85;;;;;;;;;;5077788;28;20184;-84
2021/01/19 08:25:35;;;;;;;5.53;3.53;;;;;;;;;;5077628;28;20219;-83
2021/01/19 08:28:03;;;;;;;3.38;3.08;;;;;;;;;;5077884;28;20197;-84
2021/01/19 08:30:31;;;;;;;5.35;3.47;;;;;;;;;;5076819;28;20608;-84
2021/01/19 08:32:59;;;;;;;6.72;3.63;;;;;;;;;;5078234;28;20207;-86
2021/01/19 08:35:29;;;;;;;4.10;3.50;;;;;;;;;;5078051;28;20189;-85
2021/01/19 08:37:59;;;;;;;4.75;3.85;;;;;;;;;;5077540;28;20201;-85
2021/01/19 08:40:28;;;;;;;4.43;4.05;;;;;;;;;;5077678;28;20208;-85
2021/01/19 08:42:56;;;;;;;4.13;3.72;;;;;;;;;;5077379;28;20345;-84
2021/01/19 08:45:28;;;;;;;5.25;3.30;;;;;;;;;;5043590;28;20193;-84
2021/01/19 08:47:59;;;;;;;5.50;3.80;;;;;;;;;;5043199;28;20193;-84
2021/01/19 08:50:27;;;;;;;7.53;3.60;;;;;;;;;;5077598;28;20182;-84
2021/01/19 08:52:55;;;;;;;6.70;3.53;;;;;;;;;;5079147;28;20283;-84
2021/01/19 08:55:24;;;;;;;3.60;3.22;;;;;;;;;;5082103;28;20196;-85
2021/01/19 08:57:56;;;;;;;4.57;4.18;;;;;;;;;;5081547;28;20513;-84
2021/01/19 09:00:29;;;;;;;5.88;3.70;;;;;;;;;;5082157;28;20189;-84
2021/01/19 09:02:58;;;;;;;4.30;3.80;;;;;;;;;;5081798;28;20212;-84
2021/01/19 09:05:29;;;;;;;7.53;3.97;;;;;;;;;;5081513;28;20608;-84
2021/01/19 09:07:58;;;;;;;8.05;3.83;;;;;;;;;;5081317;28;20182;-84
2021/01/19 09:10:28;;;;;;;3.63;3.30;;;;;;;;;;5081700;28;20242;-86
2021/01/19 09:12:56;;;;;;;4.82;3.78;;;;;;;;;;5081730;28;20220;-85
2021/01/19 09:15:24;;;;;;;5.03;3.58;;;;;;;;;;5081653;28;20227;-84
2021/01/19 09:17:58;;;;;;;4.60;3.55;;;;;;;;;;5081167;28;20193;-84
2021/01/19 09:20:26;;;;;;;4.45;4.05;;;;;;;;;;5081513;28;20494;-85
2021/01/19 09:22:54;;;;;;;3.55;3.20;;;;;;;;;;5081604;28;20283;-84
2021/01/19 09:25:23;;;;;;;6.60;3.88;;;;;;;;;;5081255;28;20201;-84
2021/01/19 09:27:50;;;;;;;4.95;3.80;;;;;;;;;;5080821;28;20264;-83
2021/01/19 09:30:20;;;;;;;4.43;3.60;;;;;;;;;;5046118;28;20242;-83
2021/01/19 09:32:48;;;;;;;4.97;4.18;;;;;;;;;;5080327;28;20209;-85
2021/01/19 09:35:18;;;;;;;4.45;3.20;;;;;;;;;;5081449;28;20192;-85
2021/01/19 09:37:45;;;;;;;5.78;3.25;;;;;;;;;;5080762;28;20197;-85
2021/01/19 09:40:12;;;;;;;3.33;2.97;;;;;;;;;;5081387;28;20275;-85
2021/01/19 09:42:41;;;;;;;4.47;2.97;;;;;;;;;;5080608;28;20233;-85
2021/01/19 09:45:10;;;;;;;3.90;3.60;;;;;;;;;;5080829;28;20221;-85
2021/01/19 09:47:37;;;;;;;4.70;2.67;;;;;;;;;;5079946;28;20211;-85
2021/01/19 09:50:09;;;;;;;3.67;3.10;;;;;;;;;;5081027;28;20197;-85
2021/01/19 09:52:36;;;;;;;3.30;3.00;;;;;;;;;;5080728;28;20185;-85
2021/01/19 09:55:11;;;;;;;2.95;2.75;;;;;;;;;;5081023;28;20195;-86
2021/01/19 09:57:38;;;;;;;5.07;3.28;;;;;;;;;;5080170;28;20246;-85
2021/01/19 10:00:09;;;;;;;3.47;3.17;;;;;;;;;;5080955;28;20207;-85
2021/01/19 10:02:37;;;;;;;3.80;3.03;;;;;;;;;;5080884;28;20192;-85
2021/01/19 10:05:06;;;;;;;3.88;2.55;;;;;;;;;;5079587;28;20201;-84
2021/01/19 10:07:34;;;;;;;3.83;3.17;;;;;;;;;;5079452;28;20193;-85
2021/01/19 10:10:09;;;;;;;3.38;3.08;;;;;;;;;;5080775;28;20208;-84
2021/01/19 10:12:36;;;;;;;4.45;2.58;;;;;;;;;;5080224;28;20208;-85
2021/01/19 10:15:07;;;;;;;3.15;2.40;;;;;;;;;;5080529;28;20181;-83
2021/01/19 10:17:34;;;;;;;3.05;2.22;;;;;;;;;;5080096;28;20193;-84
2021/01/19 10:20:13;;;;;;;2.55;2.35;;;;;;;;;;5080400;28;20235;-83
2021/01/19 10:22:42;;;;;;;2.92;2.58;;;;;;;;;;5080688;28;20185;-84
2021/01/19 10:25:11;;;;;;;2.70;2.30;;;;;;;;;;5080569;28;20205;-83
2021/01/19 10:27:43;;;;;;;2.30;2.10;;;;;;;;;;5079767;28;20252;-83
2021/01/19 10:30:12;;;;;;;3.17;2.38;;;;;;;;;;5080853;28;20189;-83
2021/01/19 10:32:47;;;;;;;2.65;2.28;;;;;;;;;;5080145;28;20473;-84
2021/01/19 10:35:23;;;;;;;4.57;1.92;;;;;;;;;;5079813;28;20189;-84
2021/01/19 10:37:53;;;;;;;2.42;2.22;;;;;;;;;;5079769;28;20196;-84
2021/01/19 10:40:21;;;;;;;2.15;2.05;;;;;;;;;;5070027;28;20196;-84
2021/01/19 10:42:47;;;;;;;2.92;2.72;;;;;;;;;;5039639;28;20341;-85
2021/01/19 10:45:25;;;;;;;2.60;1.92;;;;;;;;;;5039490;28;20206;-83
2021/01/19 10:47:52;;;;;;;4.80;4.00;;;;;;;;;;5039852;28;20444;-83
2021/01/19 10:50:21;;;;;;;2.20;2.00;;;;;;;;;;5039487;28;20194;-84
2021/01/19 10:52:56;;;;;;;16.27;13.13;;;;;;;;;;5039425;28;20201;-83
2021/01/19 10:55:24;;;;;;;3.05;2.63;;;;;;;;;;5039598;28;20179;-84
2021/01/19 10:57:54;;;;;;;4.90;4.30;;;;;;;;;;5039441;28;20568;-84
2021/01/19 11:00:23;;;;;;;13.52;8.80;;;;;;;;;;5039476;28;20183;-83
2021/01/19 11:02:50;;;;;;;6.80;4.40;;;;;;;;;;5039223;28;20198;-83
2021/01/19 11:05:17;;;;;;;6.75;3.58;;;;;;;;;;5038948;28;20226;-81
2021/01/19 11:07:45;;;;;;;6.72;5.03;;;;;;;;;;5004118;28;20260;-82
2021/01/19 11:10:15;;;;;;;5.25;3.65;;;;;;;;;;5038535;28;20575;-82
2021/01/19 11:12:42;;;;;;;10.90;7.30;;;;;;;;;;5036534;28;20214;-83
2021/01/19 11:15:10;;;;;;;4.22;3.33;;;;;;;;;;5038778;28;20262;-82
2021/01/19 11:17:39;;;;;;;2.35;2.15;;;;;;;;;;5037666;28;20268;-82
2021/01/19 11:20:07;;;;;;;2.13;2.03;;;;;;;;;;5039139;28;20205;-83
2021/01/19 11:22:35;;;;;;;2.55;2.35;;;;;;;;;;5039092;28;20248;-85
2021/01/19 11:25:02;;;;;;;1.63;1.52;;;;;;;;;;5038979;28;20223;-83
2021/01/19 11:27:29;;;;;;;1.20;1.20;;;;;;;;;;5039023;28;20505;-83
2021/01/19 11:29:56;;;;;;;1.40;1.30;;;;;;;;;;5038919;28;20191;-82
2021/01/19 11:32:24;;;;;;;1.67;1.58;;;;;;;;;;5038542;28;20195;-83
2021/01/19 11:34:52;;;;;;;1.60;1.50;;;;;;;;;;5038666;28;20193;-83
2021/01/19 11:37:21;;;;;;;1.30;1.23;;;;;;;;;;5098346;22;20605;-83
2021/01/19 11:39:48;;;;;;;1.75;1.63;;;;;;;;;;5045139;28;20210;-84
2021/01/19 11:42:15;;;;;;;1.65;1.58;;;;;;;;;;5048432;28;20197;-84
2021/01/19 11:44:42;;;;;;;1.45;1.35;;;;;;;;;;5058422;28;20224;-83
2021/01/19 11:47:09;;;;;;;1.42;1.10;;;;;;;;;;5058002;28;20209;-84
2021/01/19 11:49:36;;;;;;;1.30;1.20;;;;;;;;;;5058134;28;20204;-83
2021/01/19 11:52:05;;;;;;;1.15;1.15;;;;;;;;;;5058640;28;20442;-83
2021/01/19 11:54:32;;;;;;;1.85;1.75;;;;;;;;;;5058654;28;20203;-82
2021/01/19 11:56:59;;;;;;;1.67;1.33;;;;;;;;;;5057691;28;20600;-83
2021/01/19 11:59:26;;;;;;;1.45;1.30;;;;;;;;;;5046439;28;20198;-82
2021/01/19 12:01:55;;;;;;;1.75;1.42;;;;;;;;;;5047897;28;20589;-83
2021/01/19 12:04:22;;;;;;;1.45;1.38;;;;;;;;;;5058324;28;20236;-83
2021/01/19 12:06:49;;;;;;;1.00;1.00;;;;;;;;;;5056390;28;20498;-82
2021/01/19 12:09:18;;;;;;;1.20;1.10;;;;;;;;;;5057161;28;20189;-83
2021/01/19 12:11:46;;;;;;;2.10;1.38;;;;;;;;;;5057902;28;20232;-82
2021/01/19 12:14:14;;;;;;;1.10;1.10;;;;;;;;;;5057820;28;20196;-83
2021/01/19 12:16:41;;;;;;;1.00;1.00;;;;;;;;;;5057328;28;20193;-84
2021/01/19 12:19:12;;;;;;;1.00;1.00;;;;;;;;;;5057958;28;20178;-83
2021/01/19 12:21:39;;;;;;;1.98;1.88;;;;;;;;;;5056893;28;20178;-83
2021/01/19 12:24:08;;;;;;;1.85;1.75;;;;;;;;;;5058120;28;20194;-82
2021/01/19 12:26:35;;;;;;;1.80;1.70;;;;;;;;;;5007794;28;20621;-83
2021/01/19 12:29:02;;;;;;;1.65;1.55;;;;;;;;;;5006192;28;20259;-85
2021/01/19 12:31:29;;;;;;;1.55;1.45;;;;;;;;;;5057932;28;20206;-84
2021/01/19 12:33:56;;;;;;;1.50;1.40;;;;;;;;;;5057675;28;20194;-84
2021/01/19 12:36:23;;;;;;;0.88;0.88;;;;;;;;;;5006076;28;20208;-84
2021/01/19 12:38:51;;;;;;;2.17;1.38;;;;;;;;;;5057947;28;20202;-83
2021/01/19 12:41:18;;;;;;;1.45;1.40;;;;;;;;;;5057927;28;20245;-84
2021/01/19 12:43:46;;;;;;;1.02;1.02;;;;;;;;;;5057895;28;20536;-84
2021/01/19 12:46:13;;;;;;;1.02;1.02;;;;;;;;;;5055934;28;20220;-83
2021/01/19 12:48:41;;;;;;;1.00;1.00;;;;;;;;;;5023176;28;20198;-85
2021/01/19 12:51:14;;;;;;;2.13;2.03;;;;;;;;;;5057873;28;20194;-84
2021/01/19 12:53:41;;;;;;;1.20;1.20;;;;;;;;;;5057394;28;20591;-85
2021/01/19 12:56:10;;;;;;;1.33;1.23;;;;;;;;;;5057391;28;20225;-84
2021/01/19 12:58:37;;;;;;;1.23;1.13;;;;;;;;;;5057433;28;20547;-85
2021/01/19 13:01:07;;;;;;;0.90;0.90;;;;;;;;;;5057556;28;20181;-84
2021/01/19 13:03:34;;;;;;;1.35;1.25;;;;;;;;;;5057279;28;20186;-85
2021/01/19 13:06:01;;;;;;;0.90;0.90;;;;;;;;;;5057681;28;20205;-84
2021/01/19 13:08:28;;;;;;;1.42;1.33;;;;;;;;;;5056771;28;20220;-85
2021/01/19 13:10:55;;;;;;;1.38;1.27;;;;;;;;;;5057406;28;20182;-84
2021/01/19 13:13:22;;;;;;;1.10;1.10;;;;;;;;;;5055292;28;20190;-84
2021/01/19 13:15:49;;;;;;;1.02;1.00;;;;;;;;;;5056904;28;20459;-83
2021/01/19 13:18:17;;;;;;;1.23;0.88;;;;;;;;;;5057557;28;20248;-84
2021/01/19 13:20:44;;;;;;;1.30;1.20;;;;;;;;;;5057199;28;20606;-84
2021/01/19 13:23:11;;;;;;;1.20;1.10;;;;;;;;;;5057322;28;20274;-84
2021/01/19 13:25:38;;;;;;;0.90;0.90;;;;;;;;;;5055850;28;20741;-85
2021/01/19 13:28:05;;;;;;;1.00;1.00;;;;;;;;;;5057180;28;20190;-84
2021/01/19 13:30:32;;;;;;;1.05;1.05;;;;;;;;;;5057214;28;20193;-84
2021/01/19 13:32:58;;;;;;;0.90;0.90;;;;;;;;;;5057309;28;20420;-85
2021/01/19 13:35:26;;;;;;;0.85;0.85;;;;;;;;;;5055176;28;20190;-85
2021/01/19 13:37:53;;;;;;;0.90;0.90;;;;;;;;;;5056118;28;20253;-85
2021/01/19 13:40:21;;;;;;;1.52;1.27;;;;;;;;;;5058725;28;20510;-85
2021/01/19 13:42:48;;;;;;;0.90;0.90;;;;;;;;;;5061243;28;20175;-85
2021/01/19 13:45:16;;;;;;;1.10;1.10;;;;;;;;;;5060812;28;20210;-85
2021/01/19 13:47:42;;;;;;;2.13;1.30;;;;;;;;;;5060430;28;20197;-84
2021/01/19 13:50:11;;;;;;;0.95;0.95;;;;;;;;;;5078096;28;20204;-85
2021/01/19 13:52:39;;;;;;;1.00;1.00;;;;;;;;;;5046038;28;20444;-84
2021/01/19 13:55:07;;;;;;;1.27;1.10;;;;;;;;;;5070635;28;20228;-85
2021/01/19 13:57:34;;;;;;;1.00;1.00;;;;;;;;;;5059336;28;20198;-85
2021/01/19 14:00:01;;;;;;;1.80;1.70;;;;;;;;;;5059874;28;20255;-85
2021/01/19 14:02:28;;;;;;;1.13;1.10;;;;;;;;;;5060480;28;20196;-88
2021/01/19 14:04:55;;;;;;;1.13;1.13;;;;;;;;;;5060392;28;20205;-86
2021/01/19 14:07:21;;;;;;;1.02;1.02;;;;;;;;;;5060327;28;20222;-86
2021/01/19 14:09:49;;;;;;;1.20;1.10;;;;;;;;;;5059963;28;20190;-85
2021/01/19 14:12:16;;;;;;;1.10;1.00;;;;;;;;;;5059964;28;20205;-85
2021/01/19 14:14:43;;;;;;;1.10;1.10;;;;;;;;;;5060540;28;20269;-85
2021/01/19 14:17:10;;;;;;;2.83;1.27;;;;;;;;;;5060531;28;20182;-86
2021/01/19 14:19:37;;;;;;;0.85;0.77;;;;;;;;;;5059742;28;20200;-85
2021/01/19 14:22:04;;;;;;;1.33;1.33;;;;;;;;;;5060154;28;20460;-85
2021/01/19 14:24:31;;;;;;;0.80;0.80;;;;;;;;;;5060130;28;20280;-85
2021/01/19 14:26:59;;;;;;;1.15;1.05;;;;;;;;;;5059798;28;20554;-85
2021/01/19 14:29:26;;;;;;;1.00;1.00;;;;;;;;;;5059387;28;20197;-86
2021/01/19 14:31:53;;;;;;;0.93;0.93;;;;;;;;;;5060355;28;20253;-85
2021/01/19 14:34:21;;;;;;;1.17;1.00;;;;;;;;;;5060261;28;20196;-85
2021/01/19 14:36:50;;;;;;;1.60;1.30;;;;;;;;;;5060024;28;20657;-86
2021/01/19 14:39:19;;;;;;;2.42;0.95;;;;;;;;;;5059300;28;20510;-86
2021/01/19 14:41:47;;;;;;;0.65;0.65;;;;;;;;;;5059917;28;20205;-86
2021/01/19 14:44:16;;;;;;;0.90;0.82;;;;;;;;;;5059863;28;20182;-85
2021/01/19 14:46:45;;;;;;;1.00;0.95;;;;;;;;;;5059631;28;20201;-84
2021/01/19 14:49:13;;;;;;;1.60;1.50;;;;;;;;;;5058786;28;20569;-86
2021/01/19 14:51:41;;;;;;;0.90;0.90;;;;;;;;;;5059326;28;20178;-86
2021/01/19 14:54:09;;;;;;;1.00;1.00;;;;;;;;;;5059899;28;20279;-86
2021/01/19 14:56:37;;;;;;;1.13;1.10;;;;;;;;;;5058967;28;20252;-85
2021/01/19 14:59:05;;;;;;;1.30;1.20;;;;;;;;;;5059759;28;20182;-85
2021/01/19 15:01:38;;;;;;;0.90;0.90;;;;;;;;;;5059356;28;20281;-84